Weather at San Martin Airport

Public forecast

Using degrees Fahrenheit for public forecast. Weather courtesy of forecast.io.

Current aviation weather report (METAR) for San Martin Airport

Retrieved UTC (0 seconds ago):

Closest aviation forecast (TAF) to San Martin Airport

Closest forecast is Norman Y. Mineta San Jose International Airport, 23.2 nm (42.9 km) NW. Retrieved 2022/08/19 06:42 UTC (5 hours ago):

TAF KSJC 190539Z 1906/2006 32008KT P6SM FEW010 FM191000 VRB04KT P6SM BKN010 FM191630 VRB03KT P6SM FEW010 FM192000 33012KT P6SM SKC FM200400 32007KT P6SM SKC